Time;durP1;ratioP1;P1;durP2;ratioP2;P2;SDS_P1;SDS_P2;PMS_P1;PMS_P2;Temp;Humidity;BMP_temperature;BMP_pressure;BME280_temperature;BME280_humidity;BME280_pressure;Samples;Min_cycle;Max_cycle;Signal;HPM_P1;HPM_P2
2023/10/10 00:02:19;;;;;;;6.93;3.83;;;;;;;15.93;59.97;99858.84;4353418;32;34421;-71
2023/10/10 00:04:49;;;;;;;7.18;3.85;;;;;;;15.96;59.77;99863.94;4356977;32;33507;-71
2023/10/10 00:07:18;;;;;;;6.28;3.72;;;;;;;15.96;59.68;99855.84;4354414;32;33529;-71
2023/10/10 00:09:46;;;;;;;5.82;3.33;;;;;;;15.96;59.95;99855.84;4344013;32;34588;-71
2023/10/10 00:12:21;;;;;;;6.47;4.03;;;;;;;15.98;60.16;99858.38;4346090;32;35152;-71
2023/10/10 00:14:50;;;;;;;6.00;3.60;;;;;;;15.98;60.33;99861.94;4352286;32;33045;-71
2023/10/10 00:17:20;;;;;;;8.80;3.65;;;;;;;16.04;60.29;99847.84;4355483;32;33483;-71
2023/10/10 00:19:52;;;;;;;9.82;3.28;;;;;;;16.01;60.73;99848.13;4352454;32;34571;-71
2023/10/10 00:22:35;;;;;;;3.95;2.37;;;;;;;16.12;60.64;99844.44;4345551;32;33786;-71
2023/10/10 00:25:12;;;;;;;4.60;1.80;;;;;;;16.17;60.78;99850.22;4356208;32;33374;-71
2023/10/10 00:27:43;;;;;;;8.75;4.90;;;;;;;16.16;61.40;99853.09;4357152;32;33755;-71
2023/10/10 00:30:11;;;;;;;4.20;2.65;;;;;;;16.24;61.43;99853.19;4356804;32;34632;-71
2023/10/10 00:32:42;;;;;;;6.45;3.33;;;;;;;16.34;61.07;99858.53;4343948;32;33503;-71
2023/10/10 00:35:10;;;;;;;4.78;2.97;;;;;;;16.40;61.00;99863.34;4355943;32;32675;-71
2023/10/10 00:37:38;;;;;;;3.15;1.92;;;;;;;16.41;61.24;99865.91;4373071;32;33408;-71
2023/10/10 00:40:09;;;;;;;7.20;3.50;;;;;;;16.49;60.99;99862.44;4381652;32;34518;-71
2023/10/10 00:42:38;;;;;;;5.35;3.42;;;;;;;16.55;60.79;99853.75;4381703;32;34627;-70
2023/10/10 00:45:09;;;;;;;4.70;3.00;;;;;;;16.60;60.61;99848.75;4382151;32;33185;-71
2023/10/10 00:47:48;;;;;;;6.40;3.10;;;;;;;16.58;60.73;99849.91;4383221;32;33828;-71
2023/10/10 00:50:18;;;;;;;7.03;3.35;;;;;;;16.65;60.51;99853.69;4363098;32;33699;-70
2023/10/10 00:52:51;;;;;;;7.70;3.60;;;;;;;16.60;60.29;99858.72;4380976;32;33890;-71
2023/10/10 00:55:22;;;;;;;6.50;3.75;;;;;;;16.57;60.29;99864.41;4376021;32;33068;-70
2023/10/10 00:57:53;;;;;;;8.73;4.30;;;;;;;16.44;60.51;99857.50;4385692;32;34052;-71
2023/10/10 01:00:25;;;;;;;5.32;3.10;;;;;;;16.42;60.22;99864.06;4374392;32;34157;-71
2023/10/10 01:02:56;;;;;;;8.50;5.40;;;;;;;16.38;60.24;99873.47;4380713;32;33911;-70
2023/10/10 01:05:39;;;;;;;7.05;3.65;;;;;;;16.21;60.73;99869.66;4381595;32;33281;-72
2023/10/10 01:08:08;;;;;;;5.95;3.17;;;;;;;16.06;60.94;99874.72;4380436;32;34000;-72
2023/10/10 01:10:47;;;;;;;6.60;4.50;;;;;;;15.75;61.31;99879.47;4389947;32;33990;-72
2023/10/10 01:13:19;;;;;;;12.32;4.20;;;;;;;15.59;61.51;99885.41;4387025;32;33667;-71
2023/10/10 01:15:56;;;;;;;8.65;4.57;;;;;;;15.50;61.61;99883.56;4383297;32;33428;-71
2023/10/10 01:18:25;;;;;;;6.18;3.30;;;;;;;15.14;62.05;99886.81;4380060;32;34875;-71
2023/10/10 01:20:52;;;;;;;6.75;3.05;;;;;;;14.94;62.11;99890.50;4390436;32;33853;-71
2023/10/10 01:23:26;;;;;;;4.07;2.42;;;;;;;14.75;62.69;99891.31;4389819;32;35329;-71
2023/10/10 01:26:05;;;;;;;5.60;2.95;;;;;;;14.60;62.77;99889.97;4388817;32;34019;-71
2023/10/10 01:28:34;;;;;;;11.35;4.03;;;;;;;14.55;62.87;99903.03;4389510;32;34005;-72
2023/10/10 01:31:05;;;;;;;3.95;2.20;;;;;;;14.25;64.22;99899.28;4388564;32;33760;-72
2023/10/10 01:33:36;;;;;;;6.15;2.53;;;;;;;14.33;63.73;99904.88;4387002;32;33736;-71
2023/10/10 01:36:13;;;;;;;6.18;2.40;;;;;;;14.38;63.81;99904.47;4378975;32;32929;-70
2023/10/10 01:38:56;;;;;;;5.55;2.78;;;;;;;14.34;63.43;99906.56;4375315;32;33757;-71
2023/10/10 01:41:38;;;;;;;4.97;2.83;;;;;;;14.23;64.00;99903.13;4375919;32;33968;-71
2023/10/10 01:44:18;;;;;;;4.35;2.40;;;;;;;14.04;64.48;99903.88;4383050;32;33752;-71
2023/10/10 01:46:46;;;;;;;6.35;2.53;;;;;;;14.07;64.66;99901.78;4381839;32;33587;-71
2023/10/10 01:49:19;;;;;;;5.05;2.33;;;;;;;13.87;65.12;99910.72;4375785;32;34047;-71
2023/10/10 01:54:46;;;;;;;3.85;2.53;;;;;;;14.09;64.31;99901.63;4354597;32;34574;-71
2023/10/10 01:57:21;;;;;;;3.40;2.37;;;;;;;14.26;63.97;99889.41;4354531;32;33317;-72
2023/10/10 01:59:55;;;;;;;4.18;2.85;;;;;;;14.45;63.14;99897.56;4346315;32;33637;-72
2023/10/10 02:02:26;;;;;;;4.75;1.90;;;;;;;14.33;63.64;99901.34;4345018;32;35193;-71
2023/10/10 02:04:59;;;;;;;3.97;2.65;;;;;;;14.43;63.56;99897.69;4354874;32;33900;-71
2023/10/10 02:07:31;;;;;;;2.30;1.40;;;;;;;14.68;62.33;99901.78;4347326;32;33380;-71
2023/10/10 02:12:44;;;;;;;3.65;2.00;;;;;;;14.94;61.64;99895.88;4349277;32;34038;-71
2023/10/10 02:15:15;;;;;;;4.72;2.80;;;;;;;14.84;61.75;99895.88;4349015;32;34674;-71
2023/10/10 02:17:51;;;;;;;2.78;1.20;;;;;;;14.97;61.08;99903.69;4345498;33;33984;-71
2023/10/10 02:23:10;;;;;;;4.93;2.10;;;;;;;15.14;60.56;99894.06;4352267;32;34062;-71
2023/10/10 02:25:37;;;;;;;3.03;2.20;;;;;;;15.24;59.81;99894.91;4357761;32;32530;-71
2023/10/10 02:30:51;;;;;;;4.85;1.48;;;;;;;15.17;60.12;99909.13;4347448;32;33878;-72
2023/10/10 02:35:54;;;;;;;3.08;1.92;;;;;;;15.33;59.62;99901.31;4391465;32;34042;-71
2023/10/10 02:38:31;;;;;;;5.65;3.42;;;;;;;15.44;59.34;99903.91;4366293;32;33501;-71
2023/10/10 02:43:56;;;;;;;4.68;2.30;;;;;;;15.50;59.01;99913.25;4379054;32;34213;-71
2023/10/10 02:46:39;;;;;;;5.22;2.90;;;;;;;15.54;59.11;99910.13;4391871;32;33724;-71
2023/10/10 02:49:09;;;;;;;3.90;2.17;;;;;;;15.52;59.13;99916.66;4390796;32;33507;-71
2023/10/10 02:51:40;;;;;;;3.25;2.03;;;;;;;15.54;58.59;99918.22;4390765;32;34978;-72
2023/10/10 02:59:50;;;;;;;1.92;1.33;;;;;;;15.37;59.35;99902.72;4377667;32;34148;-72
2023/10/10 03:02:19;;;;;;;6.95;2.15;;;;;;;15.09;60.26;99917.91;4382812;32;33375;-71
2023/10/10 03:07:31;;;;;;;4.35;2.83;;;;;;;14.71;61.56;99924.91;4344833;32;32987;-72
2023/10/10 03:12:38;;;;;;;4.62;2.80;;;;;;;14.36;61.40;99917.22;4352477;32;34050;-66
2023/10/10 03:15:13;;;;;;;4.28;2.80;;;;;;;14.40;61.23;99922.19;4345153;32;35095;-72
2023/10/10 03:28:40;;;;;;;3.75;2.40;;;;;;;13.99;62.78;99929.31;4358301;32;34070;-72
2023/10/10 03:31:22;;;;;;;8.90;3.42;;;;;;;14.11;62.37;99940.87;4359231;32;33225;-72
2023/10/10 03:37:21;;;;;;;1.70;1.27;;;;;;;14.00;62.42;99930.22;4314721;33;34144;-74
2023/10/10 03:39:53;;;;;;;2.22;1.27;;;;;;;14.05;61.93;99930.66;4329227;33;34207;-71
2023/10/10 05:25:37;;;;;;;1.95;1.20;;;;;;;14.17;60.78;99996.88;4390476;32;34938;-70
2023/10/10 05:28:05;;;;;;;3.97;1.87;;;;;;;14.06;60.36;100006.84;4350173;32;34055;-70
2023/10/10 05:30:45;;;;;;;4.32;2.10;;;;;;;13.92;60.98;100011.56;4355194;32;34946;-70
2023/10/10 05:33:14;;;;;;;5.07;2.05;;;;;;;13.96;60.93;100009.47;4345924;32;34262;-71
2023/10/10 05:35:49;;;;;;;5.40;1.62;;;;;;;13.42;63.31;100013.97;4346197;32;34606;-70
2023/10/10 05:38:17;;;;;;;6.22;1.85;;;;;;;13.90;61.40;100018.94;4351410;32;33986;-69
2023/10/10 05:40:47;;;;;;;4.87;1.87;;;;;;;13.93;61.40;100025.88;4355762;32;33678;-70
2023/10/10 05:43:15;;;;;;;2.92;1.77;;;;;;;14.06;60.85;100023.87;4343376;32;33223;-69
2023/10/10 05:45:44;;;;;;;5.47;3.03;;;;;;;14.02;60.53;100032.31;4352078;32;34701;-71
2023/10/10 05:48:12;;;;;;;3.45;1.60;;;;;;;13.62;62.33;100035.69;4352873;32;33662;-69
2023/10/10 05:50:40;;;;;;;5.53;2.87;;;;;;;13.86;61.66;100030.91;4343856;32;33797;-70
2023/10/10 05:53:09;;;;;;;5.15;2.70;;;;;;;14.02;61.42;100032.31;4343871;32;33099;-70
2023/10/10 05:55:38;;;;;;;5.62;3.05;;;;;;;14.21;60.93;100044.09;4343693;32;33625;-71
2023/10/10 05:58:05;;;;;;;5.87;2.50;;;;;;;14.36;60.57;100039.25;4343744;32;35290;-70
2023/10/10 06:00:36;;;;;;;1.95;1.35;;;;;;;14.45;59.85;100041.16;4378748;32;34804;-71
2023/10/10 06:03:08;;;;;;;2.95;2.25;;;;;;;14.33;59.76;100041.34;4384247;32;32948;-70
2023/10/10 06:05:44;;;;;;;3.92;1.37;;;;;;;14.37;59.46;100049.00;4388255;32;33902;-70
2023/10/10 06:08:14;;;;;;;1.62;1.12;;;;;;;14.44;58.86;100044.84;4386560;32;35144;-70
2023/10/10 06:10:43;;;;;;;0.85;0.80;;;;;;;14.37;58.96;100053.56;4379231;32;34108;-67
2023/10/10 06:13:11;;;;;;;13.98;2.47;;;;;;;14.45;58.81;100051.06;4377013;32;34152;-72
2023/10/10 06:15:39;;;;;;;3.75;1.80;;;;;;;14.51;58.99;100058.66;4385490;32;34031;-72
2023/10/10 06:18:18;;;;;;;7.65;2.15;;;;;;;14.59;58.82;100063.38;4375245;32;34849;-73
2023/10/10 06:20:47;;;;;;;5.57;1.50;;;;;;;14.42;59.13;100056.72;4383050;32;33992;-72
2023/10/10 06:23:35;;;;;;;6.55;3.25;;;;;;;14.56;58.70;100061.78;4375088;32;34269;-72
2023/10/10 06:26:04;;;;;;;5.53;1.45;;;;;;;14.61;58.37;100078.41;4385343;32;33915;-71
2023/10/10 06:28:45;;;;;;;4.65;3.03;;;;;;;14.53;57.89;100077.34;4378024;32;34230;-72
2023/10/10 06:31:17;;;;;;;4.53;2.05;;;;;;;14.61;57.88;100077.56;4383846;32;35549;-71
2023/10/10 06:33:50;;;;;;;2.47;1.77;;;;;;;14.52;57.72;100067.59;4385927;32;33952;-72
2023/10/10 06:38:59;;;;;;;13.00;3.30;;;;;;;14.74;56.35;100072.81;4378244;32;35201;-72
2023/10/10 06:41:30;;;;;;;2.55;1.55;;;;;;;14.63;56.58;100068.34;4384934;32;33893;-71
2023/10/10 06:44:04;;;;;;;4.25;2.47;;;;;;;14.60;56.33;100071.31;4384137;32;33163;-71
2023/10/10 06:46:32;;;;;;;3.65;2.85;;;;;;;14.19;56.89;100078.38;4377197;32;33772;-71
2023/10/10 06:49:06;;;;;;;6.07;3.10;;;;;;;14.56;56.35;100082.50;4391362;32;34521;-72
2023/10/10 06:51:39;;;;;;;9.65;2.55;;;;;;;14.76;56.06;100091.53;4376881;32;33970;-71
2023/10/10 06:54:27;;;;;;;6.50;3.17;;;;;;;14.84;55.77;100097.13;4389880;32;32855;-72
2023/10/10 06:59:29;;;;;;;3.60;2.42;;;;;;;14.80;55.94;100107.31;4391056;32;33727;-71
2023/10/10 07:01:59;;;;;;;6.45;3.87;;;;;;;14.73;55.43;100100.72;4386490;32;33906;-71
2023/10/10 07:04:28;;;;;;;4.78;1.85;;;;;;;14.49;56.58;100106.38;4388971;32;33240;-72
2023/10/10 07:07:00;;;;;;;9.10;2.62;;;;;;;14.59;56.65;100101.06;4381806;32;33712;-71
2023/10/10 07:09:29;;;;;;;3.17;1.87;;;;;;;14.75;56.04;100100.63;4388992;32;34261;-71
2023/10/10 07:12:09;;;;;;;4.37;2.90;;;;;;;14.58;56.53;100092.16;4387108;32;33743;-71
2023/10/10 07:14:46;;;;;;;7.72;3.17;;;;;;;14.63;57.04;100099.81;4383615;32;33239;-71
2023/10/10 07:17:14;;;;;;;6.60;2.72;;;;;;;14.70;56.80;100100.16;4382250;32;34476;-71
2023/10/10 07:22:36;;;;;;;2.78;1.70;;;;;;;14.93;56.40;100114.31;4383958;32;34229;-71
2023/10/10 07:25:09;;;;;;;5.30;2.37;;;;;;;14.79;55.81;100126.31;4381633;32;34535;-72
2023/10/10 07:27:39;;;;;;;6.70;3.80;;;;;;;14.88;56.08;100120.12;4380505;32;33811;-72
2023/10/10 07:30:17;;;;;;;6.78;4.37;;;;;;;14.97;56.19;100124.72;4390843;32;35216;-71
2023/10/10 07:32:48;;;;;;;5.72;2.87;;;;;;;15.01;56.32;100118.06;4386201;32;33539;-72
2023/10/10 07:35:21;;;;;;;4.47;2.37;;;;;;;15.20;55.93;100125.37;4377961;32;34337;-72
2023/10/10 07:37:52;;;;;;;3.50;2.92;;;;;;;15.19;55.48;100126.38;4372042;32;34022;-71
2023/10/10 07:40:21;;;;;;;5.97;2.05;;;;;;;14.80;55.89;100126.19;4378716;32;35302;-71
2023/10/10 07:42:58;;;;;;;2.95;2.17;;;;;;;15.07;55.70;100130.16;4384743;32;33704;-71
2023/10/10 07:45:30;;;;;;;5.50;2.85;;;;;;;15.10;55.51;100128.03;4382159;32;33387;-71
2023/10/10 07:50:35;;;;;;;7.70;3.70;;;;;;;15.21;54.72;100118.16;4384777;32;34880;-71
2023/10/10 07:53:05;;;;;;;4.47;2.30;;;;;;;15.23;54.62;100116.19;4379419;32;34046;-73
2023/10/10 07:55:53;;;;;;;8.45;3.72;;;;;;;15.23;54.75;100108.94;4381024;32;33261;-73
2023/10/10 07:58:24;;;;;;;9.52;4.37;;;;;;;15.25;54.00;100111.47;4376428;32;34780;-73
2023/10/10 08:01:18;;;;;;;9.75;5.05;;;;;;;15.05;54.71;100122.19;4376193;32;34957;-73
2023/10/10 08:03:46;;;;;;;8.63;3.67;;;;;;;15.08;54.24;100118.37;4383201;32;34225;-73
2023/10/10 08:06:25;;;;;;;8.68;4.50;;;;;;;14.94;54.50;100116.03;4380173;32;33191;-73
2023/10/10 08:09:11;;;;;;;6.40;3.53;;;;;;;15.26;53.96;100118.59;4382125;32;34630;-73
2023/10/10 08:11:39;;;;;;;11.68;3.90;;;;;;;15.12;54.41;100126.06;4389126;32;37206;-73
2023/10/10 08:14:08;;;;;;;10.48;3.28;;;;;;;15.20;54.65;100111.06;4388893;32;33520;-74
2023/10/10 08:16:41;;;;;;;4.70;2.40;;;;;;;15.31;53.60;100105.56;4387555;32;33342;-72
2023/10/10 08:19:10;;;;;;;12.63;5.03;;;;;;;14.98;53.27;100112.94;4379148;32;34958;-72
2023/10/10 08:21:39;;;;;;;9.15;4.80;;;;;;;15.29;53.10;100129.97;4368908;32;34312;-72
2023/10/10 08:24:08;;;;;;;7.68;4.70;;;;;;;15.12;54.07;100126.06;4386580;32;33806;-72
2023/10/10 08:26:39;;;;;;;6.50;2.70;;;;;;;15.55;52.89;100127.66;4370628;32;33784;-73
2023/10/10 08:29:12;;;;;;;4.85;2.40;;;;;;;15.37;52.93;100129.28;4383368;32;32448;-72
2023/10/10 08:31:44;;;;;;;15.35;7.03;;;;;;;15.18;53.45;100142.69;4381579;32;34329;-72
2023/10/10 08:34:11;;;;;;;8.98;5.15;;;;;;;15.44;53.31;100137.69;4354376;32;33614;-72
2023/10/10 08:36:43;;;;;;;12.23;4.37;;;;;;;15.34;52.53;100145.72;4344045;32;32891;-71
2023/10/10 08:39:35;;;;;;;18.12;5.55;;;;;;;15.44;52.47;100149.34;4349548;32;34850;-74
2023/10/10 08:42:05;;;;;;;10.80;5.22;;;;;;;15.40;53.53;100139.81;4347018;32;33716;-73
2023/10/10 08:44:37;;;;;;;10.07;4.93;;;;;;;15.45;53.16;100153.75;4341907;32;33760;-69
2023/10/10 08:47:16;;;;;;;10.80;3.95;;;;;;;15.26;53.98;100154.50;4343853;32;33054;-69
2023/10/10 08:49:47;;;;;;;7.40;4.40;;;;;;;15.23;54.19;100159.31;4356041;32;34908;-69
2023/10/10 08:52:17;;;;;;;11.82;4.32;;;;;;;15.28;54.72;100152.53;4358419;32;35317;-68
2023/10/10 08:54:45;;;;;;;30.00;15.70;;;;;;;15.45;54.83;100164.53;4347141;32;33923;-69
2023/10/10 08:57:20;;;;;;;6.78;4.43;;;;;;;15.35;54.82;100160.94;4359335;32;34436;-70
2023/10/10 08:59:52;;;;;;;9.35;4.18;;;;;;;15.57;54.63;100154.50;4346294;32;33869;-68
2023/10/10 09:02:20;;;;;;;11.73;4.95;;;;;;;15.70;54.26;100165.09;4359028;32;34109;-70
2023/10/10 09:04:50;;;;;;;26.35;14.82;;;;;;;15.79;53.71;100154.31;4361901;32;33846;-70
2023/10/10 09:07:23;;;;;;;16.55;5.55;;;;;;;15.43;54.50;100162.97;4390226;32;34073;-69
2023/10/10 09:10:13;;;;;;;7.12;4.62;;;;;;;15.36;54.24;100159.94;4383787;32;34678;-69
2023/10/10 09:13:01;;;;;;;10.10;5.90;;;;;;;15.82;53.43;100164.81;4387643;32;34958;-71
2023/10/10 09:15:30;;;;;;;10.27;5.05;;;;;;;15.61;54.40;100172.13;4388995;32;33802;-70
2023/10/10 09:18:22;;;;;;;14.02;6.25;;;;;;;15.77;53.61;100177.88;4358884;32;33089;-70
2023/10/10 09:20:50;;;;;;;11.77;5.72;;;;;;;16.01;53.03;100174.81;4372559;32;34846;-70
2023/10/10 09:23:23;;;;;;;26.48;5.93;;;;;;;15.91;53.09;100184.72;4360906;32;34173;-70
2023/10/10 09:26:08;;;;;;;12.13;4.80;;;;;;;15.83;52.74;100189.97;4373581;32;34582;-70
2023/10/10 09:28:55;;;;;;;8.95;4.40;;;;;;;15.92;52.37;100178.38;4340931;32;35046;-71
2023/10/10 09:31:32;;;;;;;10.23;5.20;;;;;;;16.02;52.57;100176.53;4343447;33;33602;-69
2023/10/10 09:34:06;;;;;;;16.17;6.53;;;;;;;15.77;52.84;100179.75;4342464;32;34940;-70
2023/10/10 09:36:39;;;;;;;14.40;4.97;;;;;;;16.01;52.86;100180.22;4341579;33;33537;-69
2023/10/10 09:39:09;;;;;;;9.85;5.45;;;;;;;15.92;53.08;100169.37;4330421;32;34561;-69
2023/10/10 09:42:00;;;;;;;29.00;6.62;;;;;;;15.90;53.97;100171.41;4338958;32;33860;-69
2023/10/10 09:49:43;;;;;;;8.90;5.95;;;;;;;15.89;53.38;100183.16;4344904;32;33327;-70
2023/10/10 09:58:00;;;;;;;28.15;4.12;;;;;;;15.82;54.00;100190.97;4350127;32;35435;-70
2023/10/10 10:09:19;;;;;;;9.65;5.47;;;;;;;15.45;54.50;100175.31;4344326;32;34452;-70
2023/10/10 10:12:29;;;;;;;11.18;4.35;;;;;;;15.11;55.71;100172.03;4346537;32;33920;-69
2023/10/10 10:15:39;;;;;;;17.30;6.93;;;;;;;15.36;54.90;100190.47;4348303;32;33729;-70
2023/10/10 10:18:18;;;;;;;3.47;2.37;;;;;;;15.66;54.06;100182.50;4346550;32;33818;-70
2023/10/10 10:20:47;;;;;;;10.60;5.72;;;;;;;14.95;55.41;100194.06;4346109;32;33792;-71
2023/10/10 10:23:27;;;;;;;16.25;6.35;;;;;;;15.46;55.07;100184.25;4350230;32;34994;-70
2023/10/10 10:26:08;;;;;;;21.23;12.55;;;;;;;15.51;54.47;100182.87;4345712;32;33841;-70
2023/10/10 10:28:36;;;;;;;20.15;11.73;;;;;;;15.44;54.48;100175.44;4346796;32;33920;-71
2023/10/10 10:31:05;;;;;;;12.90;5.28;;;;;;;15.48;54.51;100185.84;4340259;32;34906;-70
2023/10/10 10:33:36;;;;;;;17.25;4.28;;;;;;;15.69;53.95;100179.56;4343355;32;34654;-70
2023/10/10 10:36:14;;;;;;;12.68;5.22;;;;;;;15.93;53.91;100177.38;4348662;32;33872;-69
2023/10/10 10:39:19;;;;;;;7.10;4.03;;;;;;;16.11;53.63;100187.47;4344982;32;34755;-70
2023/10/10 10:41:42;;;;;;;7.45;4.35;;;;;;;16.12;53.14;100184.66;4344992;32;33591;-71
2023/10/10 10:44:12;;;;;;;4.72;3.20;;;;;;;15.92;53.72;100185.59;4388829;32;34669;-69
2023/10/10 10:46:41;;;;;;;13.73;5.62;;;;;;;16.24;53.25;100180.84;4381601;32;33469;-70
2023/10/10 10:49:12;;;;;;;10.43;5.62;;;;;;;16.37;53.26;100185.09;4391629;32;35134;-71
2023/10/10 10:51:47;;;;;;;7.12;4.32;;;;;;;16.51;53.11;100188.22;4394904;32;33935;-71
2023/10/10 10:54:35;;;;;;;5.00;3.58;;;;;;;16.54;53.16;100190.66;4392304;32;34129;-71
2023/10/10 10:57:03;;;;;;;11.65;6.22;;;;;;;16.42;53.57;100180.97;4382014;32;33747;-68
2023/10/10 10:59:35;;;;;;;13.35;3.40;;;;;;;16.42;53.71;100180.97;4390075;32;34154;-69
2023/10/10 11:02:14;;;;;;;10.57;5.55;;;;;;;16.58;53.37;100184.97;4395591;32;32675;-70
2023/10/10 11:04:49;;;;;;;14.85;6.55;;;;;;;16.61;54.02;100181.97;4386519;32;32950;-71
2023/10/10 11:07:28;;;;;;;9.95;4.55;;;;;;;16.62;53.98;100180.97;4384248;32;34374;-70
2023/10/10 11:10:06;;;;;;;6.57;4.45;;;;;;;16.28;54.53;100184.09;4382867;32;34958;-71
2023/10/10 11:12:36;;;;;;;12.30;7.15;;;;;;;16.53;53.49;100183.56;4374418;32;35202;-71
2023/10/10 11:15:10;;;;;;;8.57;5.60;;;;;;;16.62;53.39;100171.00;4382103;32;34129;-70
2023/10/10 11:17:39;;;;;;;11.77;5.15;;;;;;;16.67;52.94;100179.56;4374321;32;33533;-70
2023/10/10 11:20:26;;;;;;;11.07;6.53;;;;;;;16.71;52.66;100182.81;4383729;32;34938;-71
2023/10/10 11:22:55;;;;;;;7.90;3.87;;;;;;;16.59;53.02;100179.41;4381560;32;33508;-70
2023/10/10 11:25:41;;;;;;;11.12;6.40;;;;;;;16.54;52.98;100179.84;4387227;32;34430;-70
2023/10/10 11:28:23;;;;;;;4.82;3.00;;;;;;;16.54;52.97;100177.13;4375011;32;33668;-71
2023/10/10 11:30:53;;;;;;;7.97;4.50;;;;;;;16.19;53.87;100174.12;4380262;32;33494;-70
2023/10/10 11:33:31;;;;;;;12.68;6.10;;;;;;;16.54;52.91;100155.53;4376448;32;34883;-70
2023/10/10 11:36:29;;;;;;;11.38;5.47;;;;;;;16.72;52.50;100155.63;4383873;32;33682;-70
2023/10/10 11:39:15;;;;;;;9.70;4.80;;;;;;;16.86;52.29;100146.28;4385632;32;35950;-70
2023/10/10 11:41:46;;;;;;;16.37;8.10;;;;;;;16.90;52.45;100149.53;4380650;32;33740;-71
2023/10/10 11:44:18;;;;;;;14.77;5.43;;;;;;;16.98;52.51;100155.94;4364832;32;34468;-69
2023/10/10 11:46:47;;;;;;;11.43;5.45;;;;;;;17.07;52.56;100148.78;4372675;32;35019;-69
2023/10/10 11:49:16;;;;;;;11.65;5.37;;;;;;;17.10;52.02;100147.62;4389613;32;34587;-69
2023/10/10 11:51:43;;;;;;;9.10;4.10;;;;;;;17.21;51.64;100142.06;4389281;32;35290;-69
2023/10/10 11:54:11;;;;;;;17.75;5.95;;;;;;;17.28;51.87;100145.03;4384390;32;33221;-69
2023/10/10 11:56:39;;;;;;;9.65;6.35;;;;;;;17.34;52.33;100141.72;4378988;32;33302;-69
2023/10/10 11:59:10;;;;;;;26.25;14.30;;;;;;;17.33;52.75;100138.16;4386277;32;34075;-68
2023/10/10 12:01:49;;;;;;;13.57;4.55;;;;;;;17.34;53.06;100128.19;4390251;32;34218;-68
2023/10/10 12:04:30;;;;;;;9.02;4.53;;;;;;;17.04;53.60;100127.44;4369611;32;34143;-69
2023/10/10 12:07:00;;;;;;;15.45;6.35;;;;;;;17.02;53.76;100131.31;4390782;32;34495;-68
2023/10/10 12:09:33;;;;;;;21.62;8.52;;;;;;;17.20;53.39;100124.09;4388328;32;34957;-71
2023/10/10 12:12:03;;;;;;;13.52;7.55;;;;;;;16.61;56.86;100125.22;4393922;32;33812;-70
2023/10/10 12:14:32;;;;;;;27.90;15.02;;;;;;;17.14;54.75;100119.28;4367157;32;33892;-72
2023/10/10 12:17:05;;;;;;;13.77;8.25;;;;;;;17.16;55.02;100122.69;4373073;32;33275;-71
2023/10/10 12:19:37;;;;;;;8.98;4.80;;;;;;;17.02;55.70;100110.53;4371255;32;34626;-71
2023/10/10 12:22:15;;;;;;;11.55;6.25;;;;;;;17.27;54.66;100106.31;4365573;32;34021;-71
2023/10/10 12:24:43;;;;;;;10.23;5.45;;;;;;;17.64;53.90;100113.50;4363867;32;34746;-71
2023/10/10 12:27:11;;;;;;;12.18;5.55;;;;;;;17.74;53.45;100108.03;4369236;32;33266;-72
2023/10/10 12:29:41;;;;;;;10.23;4.43;;;;;;;17.78;54.09;100113.00;4371351;32;34495;-70
2023/10/10 12:32:18;;;;;;;12.77;6.32;;;;;;;17.83;54.40;100123.41;4369522;32;34889;-70
2023/10/10 12:34:47;;;;;;;12.55;7.12;;;;;;;17.51;55.66;100119.28;4381303;32;33382;-71
2023/10/10 12:37:18;;;;;;;16.23;8.05;;;;;;;17.95;54.49;100124.06;4371027;32;33464;-73
2023/10/10 12:39:46;;;;;;;17.73;8.70;;;;;;;17.92;54.47;100126.06;4351363;32;33904;-70
2023/10/10 12:42:14;;;;;;;15.68;7.05;;;;;;;18.21;53.16;100119.56;4354788;32;33551;-72
2023/10/10 12:44:47;;;;;;;11.52;6.90;;;;;;;18.32;52.50;100119.31;4354889;32;32771;-72
2023/10/10 12:47:17;;;;;;;17.50;7.03;;;;;;;18.22;52.49;100117.72;4356925;32;33137;-73
2023/10/10 12:49:45;;;;;;;11.43;6.18;;;;;;;18.07;52.67;100104.72;4357638;32;33455;-69
2023/10/10 12:52:16;;;;;;;20.12;7.60;;;;;;;18.12;53.18;100102.38;4352683;32;33889;-72
2023/10/10 12:54:47;;;;;;;10.68;5.47;;;;;;;17.92;53.99;100111.66;4349726;32;33849;-69
2023/10/10 12:57:15;;;;;;;16.25;8.02;;;;;;;18.32;53.21;100111.19;4355504;32;33065;-71
2023/10/10 12:59:46;;;;;;;7.90;4.87;;;;;;;18.30;54.22;100110.53;4357063;32;34383;-71
2023/10/10 13:02:15;;;;;;;15.25;7.82;;;;;;;18.51;54.03;100110.19;4353480;32;34792;-69
2023/10/10 13:04:47;;;;;;;14.35;6.07;;;;;;;18.76;53.66;100115.81;4354542;32;34951;-70
2023/10/10 13:07:18;;;;;;;9.88;6.40;;;;;;;18.53;53.56;100108.16;4353508;32;32486;-70
2023/10/10 13:09:46;;;;;;;15.20;6.40;;;;;;;18.77;52.73;100115.66;4348445;32;33861;-70
2023/10/10 13:12:27;;;;;;;14.43;5.45;;;;;;;18.84;52.71;100110.44;4382962;32;33900;-69
2023/10/10 13:15:16;;;;;;;11.38;6.20;;;;;;;19.03;52.55;100104.81;4385070;32;34090;-70
2023/10/10 13:17:50;;;;;;;14.10;6.40;;;;;;;18.30;54.38;100099.69;4388499;32;33515;-70
2023/10/10 13:20:18;;;;;;;12.80;7.00;;;;;;;18.82;53.15;100099.78;4397346;32;34169;-70
2023/10/10 13:22:53;;;;;;;13.48;7.62;;;;;;;19.16;52.25;100101.66;4397619;32;33996;-70
2023/10/10 13:25:21;;;;;;;18.90;5.10;;;;;;;19.22;52.24;100092.03;4396021;32;34271;-70
2023/10/10 13:27:52;;;;;;;9.48;5.43;;;;;;;19.16;52.35;100098.09;4386486;32;33202;-70
2023/10/10 13:30:20;;;;;;;15.98;8.20;;;;;;;19.23;52.31;100091.87;4390610;32;34834;-70
2023/10/10 13:32:47;;;;;;;18.12;6.70;;;;;;;19.25;52.21;100095.25;4387276;32;35244;-70
2023/10/10 13:35:15;;;;;;;15.23;8.57;;;;;;;19.31;52.22;100091.06;4387880;32;35024;-70
2023/10/10 13:37:43;;;;;;;15.23;7.18;;;;;;;19.09;52.67;100103.31;4383398;32;33254;-70
2023/10/10 13:40:20;;;;;;;15.45;7.78;;;;;;;19.38;52.02;100091.25;4389587;32;33821;-69
2023/10/10 13:42:49;;;;;;;9.32;5.78;;;;;;;19.47;51.86;100088.41;4387806;32;33939;-69
2023/10/10 13:45:21;;;;;;;10.85;6.28;;;;;;;19.52;51.98;100087.94;4372599;32;33932;-71
2023/10/10 13:47:50;;;;;;;14.07;7.75;;;;;;;19.55;52.62;100087.59;4381011;32;34138;-70
2023/10/10 13:50:40;;;;;;;24.92;15.20;;;;;;;19.38;53.46;100097.53;4383367;32;33570;-70
2023/10/10 13:53:13;;;;;;;12.37;6.07;;;;;;;19.51;53.10;100088.94;4395455;32;35231;-71
2023/10/10 13:55:42;;;;;;;18.02;6.60;;;;;;;19.70;52.51;100083.25;4384229;32;33682;-70
2023/10/10 13:58:15;;;;;;;11.65;6.10;;;;;;;19.74;52.59;100090.06;4381254;32;33535;-70
2023/10/10 14:00:55;;;;;;;17.70;8.15;;;;;;;19.79;52.69;100089.56;4380336;32;32687;-72
2023/10/10 14:03:29;;;;;;;19.37;8.07;;;;;;;19.85;52.72;100077.19;4380824;32;33645;-72
2023/10/10 14:06:00;;;;;;;16.60;8.20;;;;;;;19.77;52.96;100089.75;4383976;32;34627;-72
2023/10/10 14:08:30;;;;;;;12.00;5.80;;;;;;;19.26;54.47;100086.12;4381013;32;33582;-73
2023/10/10 14:10:59;;;;;;;14.45;7.20;;;;;;;19.58;53.90;100083.69;4379864;32;33725;-73
2023/10/10 14:13:28;;;;;;;16.87;7.22;;;;;;;19.83;53.74;100084.66;4378919;32;35391;-73
2023/10/10 14:15:56;;;;;;;17.33;6.85;;;;;;;19.80;54.10;100082.25;4382627;32;32902;-73
2023/10/10 14:18:41;;;;;;;17.35;7.75;;;;;;;19.81;53.65;100081.25;4382311;32;33279;-72
2023/10/10 14:21:10;;;;;;;;;;;;;;;19.86;53.75;100078.88;4368343;32;32468;-73
2023/10/10 14:23:39;;;;;;;19.98;7.95;;;;;;;20.09;53.39;100088.09;4382641;32;33971;-72
2023/10/10 14:26:13;;;;;;;16.08;6.65;;;;;;;20.18;53.13;100088.94;4379512;32;33557;-73
2023/10/10 14:28:42;;;;;;;22.00;7.97;;;;;;;20.13;53.29;100083.19;4381502;32;33762;-72
2023/10/10 14:31:13;;;;;;;11.80;6.85;;;;;;;20.17;53.18;100074.53;4381680;32;33785;-72
2023/10/10 14:33:40;;;;;;;16.15;8.82;;;;;;;20.11;53.55;100072.47;4385121;32;33856;-72
2023/10/10 14:36:13;;;;;;;14.15;6.60;;;;;;;20.19;53.50;100077.06;4384030;32;33855;-72
2023/10/10 14:38:48;;;;;;;16.08;5.95;;;;;;;20.22;53.39;100082.16;4386647;32;33277;-72
2023/10/10 14:41:19;;;;;;;13.52;5.93;;;;;;;20.32;53.26;100077.44;4387158;32;34362;-72
2023/10/10 14:43:50;;;;;;;10.73;6.87;;;;;;;20.35;53.32;100068.94;4387507;32;34108;-72
2023/10/10 14:46:22;;;;;;;14.68;8.35;;;;;;;20.27;53.90;100071.63;4381150;32;34647;-72
2023/10/10 14:48:59;;;;;;;15.00;7.80;;;;;;;20.32;53.87;100073.84;4381618;32;34175;-72